sensor_id;sensor_type;location;lat;lon;timestamp;P1;durP1;ratioP1;P2;durP2;ratioP2
18812;SDS011;9534;51.140;6.296;2022-09-14T00:02:20;6.28;;;2.50;;
18812;SDS011;9534;51.140;6.296;2022-09-14T00:06:23;5.93;;;2.60;;
18812;SDS011;9534;51.140;6.296;2022-09-14T00:10:27;10.25;;;3.08;;
18812;SDS011;9534;51.140;6.296;2022-09-14T00:14:31;5.25;;;2.60;;
18812;SDS011;9534;51.140;6.296;2022-09-14T00:18:34;10.80;;;3.20;;
18812;SDS011;9534;51.140;6.296;2022-09-14T00:22:38;10.43;;;2.70;;
18812;SDS011;9534;51.140;6.296;2022-09-14T00:26:42;7.93;;;2.42;;
18812;SDS011;9534;51.140;6.296;2022-09-14T00:30:45;5.95;;;2.80;;
18812;SDS011;9534;51.140;6.296;2022-09-14T00:34:48;6.95;;;2.67;;
18812;SDS011;9534;51.140;6.296;2022-09-14T00:38:51;5.35;;;2.55;;
18812;SDS011;9534;51.140;6.296;2022-09-14T00:42:58;12.60;;;2.47;;
18812;SDS011;9534;51.140;6.296;2022-09-14T00:47:01;4.65;;;2.30;;
18812;SDS011;9534;51.140;6.296;2022-09-14T00:51:04;9.98;;;2.42;;
18812;SDS011;9534;51.140;6.296;2022-09-14T00:55:08;11.73;;;3.10;;
18812;SDS011;9534;51.140;6.296;2022-09-14T00:59:15;19.92;;;2.78;;
18812;SDS011;9534;51.140;6.296;2022-09-14T01:03:21;6.40;;;2.30;;
18812;SDS011;9534;51.140;6.296;2022-09-14T01:07:31;10.32;;;3.28;;
18812;SDS011;9534;51.140;6.296;2022-09-14T01:11:48;5.03;;;2.28;;
18812;SDS011;9534;51.140;6.296;2022-09-14T01:16:02;5.22;;;2.30;;
18812;SDS011;9534;51.140;6.296;2022-09-14T01:20:14;12.10;;;2.67;;
18812;SDS011;9534;51.140;6.296;2022-09-14T01:24:24;5.10;;;2.50;;
18812;SDS011;9534;51.140;6.296;2022-09-14T01:28:33;14.30;;;2.47;;
18812;SDS011;9534;51.140;6.296;2022-09-14T01:32:43;7.68;;;2.72;;
18812;SDS011;9534;51.140;6.296;2022-09-14T01:36:53;5.63;;;2.88;;
18812;SDS011;9534;51.140;6.296;2022-09-14T01:41:02;8.45;;;2.78;;
18812;SDS011;9534;51.140;6.296;2022-09-14T01:45:10;9.45;;;2.53;;
18812;SDS011;9534;51.140;6.296;2022-09-14T01:49:17;11.18;;;2.95;;
18812;SDS011;9534;51.140;6.296;2022-09-14T01:53:25;9.13;;;2.80;;
18812;SDS011;9534;51.140;6.296;2022-09-14T01:57:35;8.20;;;2.97;;
18812;SDS011;9534;51.140;6.296;2022-09-14T02:01:44;7.40;;;2.92;;
18812;SDS011;9534;51.140;6.296;2022-09-14T02:05:53;7.07;;;3.15;;
18812;SDS011;9534;51.140;6.296;2022-09-14T02:10:01;12.07;;;2.90;;
18812;SDS011;9534;51.140;6.296;2022-09-14T02:14:06;6.18;;;2.90;;
18812;SDS011;9534;51.140;6.296;2022-09-14T02:18:11;9.45;;;3.17;;
18812;SDS011;9534;51.140;6.296;2022-09-14T02:22:14;6.47;;;2.72;;
18812;SDS011;9534;51.140;6.296;2022-09-14T02:26:17;10.15;;;3.50;;
18812;SDS011;9534;51.140;6.296;2022-09-14T02:30:22;7.13;;;3.28;;
18812;SDS011;9534;51.140;6.296;2022-09-14T02:34:29;8.80;;;3.17;;
18812;SDS011;9534;51.140;6.296;2022-09-14T02:38:43;12.02;;;3.22;;
18812;SDS011;9534;51.140;6.296;2022-09-14T02:42:54;9.45;;;3.72;;
18812;SDS011;9534;51.140;6.296;2022-09-14T02:47:06;10.90;;;3.83;;
18812;SDS011;9534;51.140;6.296;2022-09-14T02:51:19;10.82;;;3.83;;
18812;SDS011;9534;51.140;6.296;2022-09-14T02:55:30;10.07;;;4.03;;
18812;SDS011;9534;51.140;6.296;2022-09-14T02:59:37;8.00;;;4.10;;
18812;SDS011;9534;51.140;6.296;2022-09-14T03:03:40;12.85;;;4.10;;
18812;SDS011;9534;51.140;6.296;2022-09-14T03:07:45;13.50;;;4.97;;
18812;SDS011;9534;51.140;6.296;2022-09-14T03:11:48;7.22;;;4.10;;
18812;SDS011;9534;51.140;6.296;2022-09-14T03:15:51;12.55;;;4.68;;
18812;SDS011;9534;51.140;6.296;2022-09-14T03:19:54;16.33;;;4.60;;
18812;SDS011;9534;51.140;6.296;2022-09-14T03:23:58;13.07;;;4.70;;
18812;SDS011;9534;51.140;6.296;2022-09-14T03:28:02;12.43;;;4.50;;
18812;SDS011;9534;51.140;6.296;2022-09-14T03:32:05;11.07;;;4.63;;
18812;SDS011;9534;51.140;6.296;2022-09-14T03:36:08;17.15;;;5.32;;
18812;SDS011;9534;51.140;6.296;2022-09-14T03:40:14;11.52;;;4.82;;
18812;SDS011;9534;51.140;6.296;2022-09-14T03:44:22;15.35;;;6.15;;
18812;SDS011;9534;51.140;6.296;2022-09-14T03:48:25;17.95;;;6.13;;
18812;SDS011;9534;51.140;6.296;2022-09-14T03:52:28;86.03;;;28.88;;
18812;SDS011;9534;51.140;6.296;2022-09-14T03:56:32;15.50;;;7.28;;
18812;SDS011;9534;51.140;6.296;2022-09-14T04:00:35;24.63;;;8.00;;
18812;SDS011;9534;51.140;6.296;2022-09-14T04:04:41;16.95;;;6.50;;
18812;SDS011;9534;51.140;6.296;2022-09-14T04:08:44;18.98;;;7.35;;
18812;SDS011;9534;51.140;6.296;2022-09-14T04:12:50;19.63;;;8.25;;
18812;SDS011;9534;51.140;6.296;2022-09-14T04:16:53;76.68;;;30.73;;
18812;SDS011;9534;51.140;6.296;2022-09-14T04:20:56;27.67;;;10.55;;
18812;SDS011;9534;51.140;6.296;2022-09-14T04:25:06;24.15;;;10.23;;
18812;SDS011;9534;51.140;6.296;2022-09-14T04:29:11;27.63;;;9.52;;
18812;SDS011;9534;51.140;6.296;2022-09-14T04:33:15;20.70;;;9.57;;
18812;SDS011;9534;51.140;6.296;2022-09-14T04:37:18;26.58;;;9.10;;
18812;SDS011;9534;51.140;6.296;2022-09-14T04:41:21;22.13;;;8.50;;
18812;SDS011;9534;51.140;6.296;2022-09-14T04:45:26;50.78;;;19.77;;
18812;SDS011;9534;51.140;6.296;2022-09-14T04:49:29;25.98;;;9.65;;
18812;SDS011;9534;51.140;6.296;2022-09-14T04:53:32;22.23;;;9.52;;
18812;SDS011;9534;51.140;6.296;2022-09-14T04:57:37;22.40;;;9.02;;
18812;SDS011;9534;51.140;6.296;2022-09-14T05:01:42;20.05;;;8.32;;
18812;SDS011;9534;51.140;6.296;2022-09-14T05:05:46;20.95;;;8.25;;
18812;SDS011;9534;51.140;6.296;2022-09-14T05:09:49;19.35;;;8.70;;
18812;SDS011;9534;51.140;6.296;2022-09-14T05:13:53;21.40;;;7.63;;
18812;SDS011;9534;51.140;6.296;2022-09-14T05:17:58;21.92;;;6.78;;
18812;SDS011;9534;51.140;6.296;2022-09-14T05:22:01;18.60;;;7.57;;
18812;SDS011;9534;51.140;6.296;2022-09-14T05:26:05;12.93;;;5.53;;
18812;SDS011;9534;51.140;6.296;2022-09-14T05:30:09;19.60;;;5.55;;
18812;SDS011;9534;51.140;6.296;2022-09-14T05:34:14;17.05;;;5.57;;
18812;SDS011;9534;51.140;6.296;2022-09-14T05:38:17;16.80;;;6.10;;
18812;SDS011;9534;51.140;6.296;2022-09-14T05:42:20;14.20;;;5.95;;
18812;SDS011;9534;51.140;6.296;2022-09-14T05:46:23;20.48;;;5.63;;
18812;SDS011;9534;51.140;6.296;2022-09-14T05:50:28;12.50;;;5.28;;
18812;SDS011;9534;51.140;6.296;2022-09-14T05:54:31;17.98;;;5.85;;
18812;SDS011;9534;51.140;6.296;2022-09-14T05:58:34;16.65;;;4.70;;
18812;SDS011;9534;51.140;6.296;2022-09-14T06:02:39;14.05;;;5.45;;
18812;SDS011;9534;51.140;6.296;2022-09-14T06:06:49;13.10;;;4.70;;
18812;SDS011;9534;51.140;6.296;2022-09-14T06:11:13;14.73;;;4.35;;
18812;SDS011;9534;51.140;6.296;2022-09-14T06:15:17;18.48;;;5.43;;
18812;SDS011;9534;51.140;6.296;2022-09-14T06:19:20;14.82;;;4.63;;
18812;SDS011;9534;51.140;6.296;2022-09-14T06:23:24;12.90;;;4.68;;
18812;SDS011;9534;51.140;6.296;2022-09-14T06:27:27;20.50;;;5.07;;
18812;SDS011;9534;51.140;6.296;2022-09-14T06:31:31;20.23;;;4.57;;
18812;SDS011;9534;51.140;6.296;2022-09-14T06:35:34;13.88;;;4.35;;
18812;SDS011;9534;51.140;6.296;2022-09-14T06:39:38;23.58;;;5.13;;
18812;SDS011;9534;51.140;6.296;2022-09-14T06:43:41;23.17;;;5.38;;
18812;SDS011;9534;51.140;6.296;2022-09-14T06:47:44;17.55;;;4.32;;
18812;SDS011;9534;51.140;6.296;2022-09-14T06:51:47;19.48;;;4.47;;
18812;SDS011;9534;51.140;6.296;2022-09-14T06:55:52;21.63;;;4.72;;
18812;SDS011;9534;51.140;6.296;2022-09-14T07:00:01;15.77;;;4.32;;
18812;SDS011;9534;51.140;6.296;2022-09-14T07:04:04;11.38;;;4.15;;
18812;SDS011;9534;51.140;6.296;2022-09-14T07:08:07;17.38;;;4.07;;
18812;SDS011;9534;51.140;6.296;2022-09-14T07:12:14;19.40;;;3.92;;
18812;SDS011;9534;51.140;6.296;2022-09-14T07:16:17;12.48;;;3.78;;
18812;SDS011;9534;51.140;6.296;2022-09-14T07:20:20;11.85;;;4.03;;
18812;SDS011;9534;51.140;6.296;2022-09-14T07:24:23;14.15;;;4.65;;
18812;SDS011;9534;51.140;6.296;2022-09-14T07:28:28;16.17;;;4.78;;
18812;SDS011;9534;51.140;6.296;2022-09-14T07:32:33;14.98;;;4.55;;
18812;SDS011;9534;51.140;6.296;2022-09-14T07:36:36;15.23;;;4.57;;
18812;SDS011;9534;51.140;6.296;2022-09-14T07:40:39;12.57;;;4.35;;
18812;SDS011;9534;51.140;6.296;2022-09-14T07:44:44;10.55;;;4.72;;
18812;SDS011;9534;51.140;6.296;2022-09-14T07:48:47;15.25;;;5.22;;
18812;SDS011;9534;51.140;6.296;2022-09-14T07:52:55;18.98;;;5.43;;
18812;SDS011;9534;51.140;6.296;2022-09-14T07:56:59;15.43;;;6.53;;
18812;SDS011;9534;51.140;6.296;2022-09-14T08:01:06;15.93;;;5.20;;
18812;SDS011;9534;51.140;6.296;2022-09-14T08:05:10;11.40;;;5.35;;
18812;SDS011;9534;51.140;6.296;2022-09-14T08:09:13;13.85;;;5.78;;
18812;SDS011;9534;51.140;6.296;2022-09-14T08:13:16;17.90;;;5.53;;
18812;SDS011;9534;51.140;6.296;2022-09-14T08:17:20;13.60;;;5.43;;
18812;SDS011;9534;51.140;6.296;2022-09-14T08:21:24;13.20;;;6.30;;
18812;SDS011;9534;51.140;6.296;2022-09-14T08:25:29;13.65;;;5.85;;
18812;SDS011;9534;51.140;6.296;2022-09-14T08:29:32;14.57;;;5.40;;
18812;SDS011;9534;51.140;6.296;2022-09-14T08:33:37;15.15;;;5.47;;
18812;SDS011;9534;51.140;6.296;2022-09-14T08:37:42;15.00;;;5.80;;
18812;SDS011;9534;51.140;6.296;2022-09-14T08:41:47;14.07;;;5.05;;
18812;SDS011;9534;51.140;6.296;2022-09-14T08:45:56;12.05;;;5.05;;
18812;SDS011;9534;51.140;6.296;2022-09-14T08:50:09;14.00;;;5.70;;
18812;SDS011;9534;51.140;6.296;2022-09-14T08:54:15;14.48;;;5.13;;
18812;SDS011;9534;51.140;6.296;2022-09-14T08:58:20;14.35;;;5.07;;
18812;SDS011;9534;51.140;6.296;2022-09-14T09:07:19;11.27;;;4.88;;
18812;SDS011;9534;51.140;6.296;2022-09-14T09:11:34;12.90;;;4.72;;
18812;SDS011;9534;51.140;6.296;2022-09-14T09:15:42;15.15;;;4.55;;
18812;SDS011;9534;51.140;6.296;2022-09-14T09:19:52;12.30;;;4.63;;
18812;SDS011;9534;51.140;6.296;2022-09-14T09:24:03;13.20;;;4.60;;
18812;SDS011;9534;51.140;6.296;2022-09-14T09:28:18;10.38;;;3.78;;
18812;SDS011;9534;51.140;6.296;2022-09-14T09:32:22;9.43;;;3.88;;
18812;SDS011;9534;51.140;6.296;2022-09-14T09:36:53;12.05;;;4.88;;
18812;SDS011;9534;51.140;6.296;2022-09-14T09:41:00;9.75;;;3.38;;
18812;SDS011;9534;51.140;6.296;2022-09-14T09:45:08;9.88;;;4.45;;
18812;SDS011;9534;51.140;6.296;2022-09-14T09:49:15;9.77;;;4.10;;
18812;SDS011;9534;51.140;6.296;2022-09-14T09:53:22;11.13;;;3.55;;
18812;SDS011;9534;51.140;6.296;2022-09-14T09:57:28;10.38;;;4.05;;
18812;SDS011;9534;51.140;6.296;2022-09-14T10:01:33;8.27;;;3.50;;
18812;SDS011;9534;51.140;6.296;2022-09-14T10:05:37;9.13;;;3.25;;
18812;SDS011;9534;51.140;6.296;2022-09-14T10:09:40;8.65;;;3.22;;
18812;SDS011;9534;51.140;6.296;2022-09-14T10:13:44;8.93;;;3.40;;
18812;SDS011;9534;51.140;6.296;2022-09-14T10:18:04;10.32;;;3.25;;
18812;SDS011;9534;51.140;6.296;2022-09-14T10:22:24;9.57;;;3.35;;
18812;SDS011;9534;51.140;6.296;2022-09-14T10:26:30;9.98;;;3.30;;
18812;SDS011;9534;51.140;6.296;2022-09-14T10:30:41;11.25;;;3.50;;
18812;SDS011;9534;51.140;6.296;2022-09-14T10:34:50;9.50;;;3.60;;
18812;SDS011;9534;51.140;6.296;2022-09-14T10:38:54;10.05;;;2.75;;
18812;SDS011;9534;51.140;6.296;2022-09-14T10:43:06;5.47;;;2.60;;
18812;SDS011;9534;51.140;6.296;2022-09-14T10:47:20;5.40;;;2.10;;
18812;SDS011;9534;51.140;6.296;2022-09-14T10:51:39;8.60;;;2.78;;
18812;SDS011;9534;51.140;6.296;2022-09-14T10:55:52;9.32;;;2.45;;
18812;SDS011;9534;51.140;6.296;2022-09-14T11:00:02;6.20;;;2.33;;
18812;SDS011;9534;51.140;6.296;2022-09-14T11:04:16;7.72;;;2.50;;
18812;SDS011;9534;51.140;6.296;2022-09-14T11:08:30;6.03;;;2.20;;
18812;SDS011;9534;51.140;6.296;2022-09-14T11:12:39;7.78;;;3.00;;
18812;SDS011;9534;51.140;6.296;2022-09-14T11:16:54;7.78;;;2.28;;
18812;SDS011;9534;51.140;6.296;2022-09-14T11:21:09;5.43;;;2.67;;
18812;SDS011;9534;51.140;6.296;2022-09-14T11:25:22;3.83;;;2.05;;
18812;SDS011;9534;51.140;6.296;2022-09-14T11:29:30;3.83;;;1.85;;
18812;SDS011;9534;51.140;6.296;2022-09-14T11:33:37;3.10;;;1.60;;
18812;SDS011;9534;51.140;6.296;2022-09-14T11:37:47;4.78;;;1.77;;
18812;SDS011;9534;51.140;6.296;2022-09-14T11:41:54;3.63;;;1.85;;
18812;SDS011;9534;51.140;6.296;2022-09-14T11:46:04;3.35;;;1.70;;
18812;SDS011;9534;51.140;6.296;2022-09-14T11:50:14;3.83;;;1.55;;
18812;SDS011;9534;51.140;6.296;2022-09-14T11:54:21;6.93;;;1.55;;
18812;SDS011;9534;51.140;6.296;2022-09-14T11:58:26;3.65;;;1.13;;
18812;SDS011;9534;51.140;6.296;2022-09-14T12:11:54;3.13;;;1.25;;
18812;SDS011;9534;51.140;6.296;2022-09-14T12:16:00;1.70;;;0.93;;
18812;SDS011;9534;51.140;6.296;2022-09-14T12:20:26;2.58;;;1.40;;
18812;SDS011;9534;51.140;6.296;2022-09-14T12:24:39;2.10;;;0.88;;
18812;SDS011;9534;51.140;6.296;2022-09-14T12:28:45;4.00;;;1.42;;
18812;SDS011;9534;51.140;6.296;2022-09-14T12:32:50;2.22;;;1.10;;
18812;SDS011;9534;51.140;6.296;2022-09-14T12:46:32;8.32;;;1.73;;
18812;SDS011;9534;51.140;6.296;2022-09-14T12:50:39;3.45;;;1.60;;
18812;SDS011;9534;51.140;6.296;2022-09-14T12:54:45;4.07;;;1.40;;
18812;SDS011;9534;51.140;6.296;2022-09-14T12:59:00;1.83;;;1.10;;
18812;SDS011;9534;51.140;6.296;2022-09-14T13:03:16;3.75;;;1.30;;
18812;SDS011;9534;51.140;6.296;2022-09-14T13:07:31;6.28;;;1.80;;
18812;SDS011;9534;51.140;6.296;2022-09-14T13:11:37;3.15;;;1.30;;
18812;SDS011;9534;51.140;6.296;2022-09-14T13:15:49;6.13;;;1.60;;
18812;SDS011;9534;51.140;6.296;2022-09-14T13:19:56;2.78;;;1.40;;
18812;SDS011;9534;51.140;6.296;2022-09-14T13:24:01;3.42;;;1.40;;
18812;SDS011;9534;51.140;6.296;2022-09-14T13:28:11;3.42;;;1.60;;
18812;SDS011;9534;51.140;6.296;2022-09-14T13:32:16;3.50;;;1.40;;
18812;SDS011;9534;51.140;6.296;2022-09-14T13:36:24;4.57;;;1.50;;
18812;SDS011;9534;51.140;6.296;2022-09-14T13:40:30;7.03;;;1.33;;
18812;SDS011;9534;51.140;6.296;2022-09-14T13:44:35;3.95;;;1.58;;
18812;SDS011;9534;51.140;6.296;2022-09-14T13:48:42;4.95;;;1.35;;
18812;SDS011;9534;51.140;6.296;2022-09-14T13:52:49;3.15;;;1.42;;
18812;SDS011;9534;51.140;6.296;2022-09-14T13:57:11;4.20;;;1.67;;
18812;SDS011;9534;51.140;6.296;2022-09-14T14:01:23;5.22;;;1.40;;
18812;SDS011;9534;51.140;6.296;2022-09-14T14:05:29;3.78;;;1.58;;
18812;SDS011;9534;51.140;6.296;2022-09-14T15:20:20;5.93;;;2.05;;
18812;SDS011;9534;51.140;6.296;2022-09-14T15:24:27;4.57;;;1.70;;
18812;SDS011;9534;51.140;6.296;2022-09-14T15:28:32;4.57;;;2.33;;
18812;SDS011;9534;51.140;6.296;2022-09-14T15:32:40;3.30;;;1.73;;
18812;SDS011;9534;51.140;6.296;2022-09-14T15:36:46;2.60;;;1.67;;
18812;SDS011;9534;51.140;6.296;2022-09-14T15:40:51;3.85;;;2.05;;
18812;SDS011;9534;51.140;6.296;2022-09-14T15:44:54;4.53;;;1.80;;
18812;SDS011;9534;51.140;6.296;2022-09-14T15:48:57;3.25;;;1.65;;
18812;SDS011;9534;51.140;6.296;2022-09-14T15:53:02;4.68;;;2.00;;
18812;SDS011;9534;51.140;6.296;2022-09-14T15:57:06;5.53;;;1.67;;
18812;SDS011;9534;51.140;6.296;2022-09-14T16:01:14;5.68;;;1.60;;
18812;SDS011;9534;51.140;6.296;2022-09-14T16:05:18;3.17;;;1.70;;
18812;SDS011;9534;51.140;6.296;2022-09-14T16:09:23;3.78;;;1.90;;
18812;SDS011;9534;51.140;6.296;2022-09-14T16:13:31;9.18;;;4.43;;
18812;SDS011;9534;51.140;6.296;2022-09-14T16:17:34;3.72;;;1.90;;
18812;SDS011;9534;51.140;6.296;2022-09-14T16:21:38;6.78;;;2.10;;
18812;SDS011;9534;51.140;6.296;2022-09-14T16:25:43;4.50;;;1.33;;
18812;SDS011;9534;51.140;6.296;2022-09-14T16:29:46;5.65;;;1.70;;
18812;SDS011;9534;51.140;6.296;2022-09-14T16:33:50;3.35;;;1.25;;
18812;SDS011;9534;51.140;6.296;2022-09-14T16:37:56;4.00;;;1.52;;
18812;SDS011;9534;51.140;6.296;2022-09-14T16:42:00;9.02;;;2.33;;
18812;SDS011;9534;51.140;6.296;2022-09-14T16:46:04;5.50;;;1.80;;
18812;SDS011;9534;51.140;6.296;2022-09-14T16:50:09;3.97;;;1.92;;
18812;SDS011;9534;51.140;6.296;2022-09-14T16:54:13;4.60;;;2.28;;
18812;SDS011;9534;51.140;6.296;2022-09-14T16:58:18;10.10;;;2.47;;
18812;SDS011;9534;51.140;6.296;2022-09-14T17:02:21;12.25;;;2.17;;
18812;SDS011;9534;51.140;6.296;2022-09-14T17:06:26;5.97;;;2.90;;
18812;SDS011;9534;51.140;6.296;2022-09-14T17:10:32;9.77;;;3.17;;
18812;SDS011;9534;51.140;6.296;2022-09-14T17:14:37;9.88;;;3.35;;
18812;SDS011;9534;51.140;6.296;2022-09-14T17:18:41;7.07;;;2.20;;
18812;SDS011;9534;51.140;6.296;2022-09-14T17:22:45;6.93;;;2.90;;
18812;SDS011;9534;51.140;6.296;2022-09-14T17:26:48;7.95;;;3.45;;
18812;SDS011;9534;51.140;6.296;2022-09-14T17:30:53;10.88;;;3.38;;
18812;SDS011;9534;51.140;6.296;2022-09-14T17:34:58;8.85;;;3.78;;
18812;SDS011;9534;51.140;6.296;2022-09-14T17:39:02;12.00;;;4.07;;
18812;SDS011;9534;51.140;6.296;2022-09-14T17:43:12;13.18;;;4.05;;
18812;SDS011;9534;51.140;6.296;2022-09-14T17:47:17;10.55;;;4.72;;
18812;SDS011;9534;51.140;6.296;2022-09-14T17:51:22;13.48;;;5.32;;
18812;SDS011;9534;51.140;6.296;2022-09-14T17:55:27;12.48;;;5.38;;
18812;SDS011;9534;51.140;6.296;2022-09-14T17:59:30;12.90;;;5.70;;
18812;SDS011;9534;51.140;6.296;2022-09-14T18:03:34;17.23;;;5.95;;
18812;SDS011;9534;51.140;6.296;2022-09-14T18:07:38;14.45;;;5.25;;
18812;SDS011;9534;51.140;6.296;2022-09-14T18:11:42;12.10;;;6.00;;
18812;SDS011;9534;51.140;6.296;2022-09-14T18:15:46;12.85;;;5.65;;
18812;SDS011;9534;51.140;6.296;2022-09-14T18:19:50;12.57;;;5.45;;
18812;SDS011;9534;51.140;6.296;2022-09-14T18:23:58;15.65;;;6.00;;
18812;SDS011;9534;51.140;6.296;2022-09-14T18:28:01;12.32;;;5.53;;
18812;SDS011;9534;51.140;6.296;2022-09-14T18:32:04;17.10;;;5.63;;
18812;SDS011;9534;51.140;6.296;2022-09-14T18:36:09;16.85;;;6.82;;
18812;SDS011;9534;51.140;6.296;2022-09-14T18:40:12;14.98;;;6.53;;
18812;SDS011;9534;51.140;6.296;2022-09-14T18:44:20;15.57;;;6.53;;
18812;SDS011;9534;51.140;6.296;2022-09-14T18:48:24;13.98;;;6.38;;
18812;SDS011;9534;51.140;6.296;2022-09-14T18:52:29;15.63;;;6.70;;
18812;SDS011;9534;51.140;6.296;2022-09-14T18:56:33;39.58;;;15.35;;
18812;SDS011;9534;51.140;6.296;2022-09-14T19:00:40;13.52;;;6.30;;
18812;SDS011;9534;51.140;6.296;2022-09-14T19:04:45;21.92;;;8.07;;
18812;SDS011;9534;51.140;6.296;2022-09-14T19:08:50;26.88;;;11.15;;
18812;SDS011;9534;51.140;6.296;2022-09-14T19:12:53;26.40;;;9.32;;
18812;SDS011;9534;51.140;6.296;2022-09-14T19:16:56;22.85;;;8.88;;
18812;SDS011;9534;51.140;6.296;2022-09-14T19:21:03;22.67;;;8.27;;
18812;SDS011;9534;51.140;6.296;2022-09-14T19:25:09;20.88;;;7.85;;
18812;SDS011;9534;51.140;6.296;2022-09-14T19:29:13;17.67;;;7.30;;
18812;SDS011;9534;51.140;6.296;2022-09-14T19:33:17;15.02;;;7.80;;
18812;SDS011;9534;51.140;6.296;2022-09-14T19:37:22;22.85;;;8.32;;
18812;SDS011;9534;51.140;6.296;2022-09-14T19:41:27;26.15;;;9.57;;
18812;SDS011;9534;51.140;6.296;2022-09-14T19:45:33;33.35;;;9.13;;
18812;SDS011;9534;51.140;6.296;2022-09-14T19:49:36;33.05;;;10.27;;
18812;SDS011;9534;51.140;6.296;2022-09-14T19:53:40;24.88;;;9.63;;
18812;SDS011;9534;51.140;6.296;2022-09-14T19:57:45;27.58;;;9.30;;
18812;SDS011;9534;51.140;6.296;2022-09-14T20:01:49;24.70;;;8.23;;
18812;SDS011;9534;51.140;6.296;2022-09-14T20:06:01;26.70;;;8.75;;
18812;SDS011;9534;51.140;6.296;2022-09-14T20:10:07;35.90;;;10.48;;
18812;SDS011;9534;51.140;6.296;2022-09-14T20:14:13;32.63;;;11.30;;
18812;SDS011;9534;51.140;6.296;2022-09-14T20:18:18;25.88;;;10.02;;
18812;SDS011;9534;51.140;6.296;2022-09-14T20:22:21;24.83;;;8.85;;
18812;SDS011;9534;51.140;6.296;2022-09-14T20:26:25;27.15;;;8.73;;
18812;SDS011;9534;51.140;6.296;2022-09-14T20:30:31;25.42;;;9.68;;
18812;SDS011;9534;51.140;6.296;2022-09-14T20:34:34;30.67;;;10.43;;
18812;SDS011;9534;51.140;6.296;2022-09-14T20:38:40;46.25;;;16.40;;
18812;SDS011;9534;51.140;6.296;2022-09-14T20:42:49;68.25;;;18.05;;
18812;SDS011;9534;51.140;6.296;2022-09-14T20:46:53;37.67;;;11.43;;
18812;SDS011;9534;51.140;6.296;2022-09-14T20:50:57;41.88;;;10.15;;
18812;SDS011;9534;51.140;6.296;2022-09-14T20:55:00;39.70;;;11.20;;
18812;SDS011;9534;51.140;6.296;2022-09-14T20:59:05;27.95;;;8.73;;
18812;SDS011;9534;51.140;6.296;2022-09-14T21:03:11;33.10;;;9.98;;
18812;SDS011;9534;51.140;6.296;2022-09-14T21:07:15;33.13;;;9.35;;
18812;SDS011;9534;51.140;6.296;2022-09-14T21:11:18;34.22;;;10.02;;
18812;SDS011;9534;51.140;6.296;2022-09-14T21:15:24;28.40;;;9.15;;
18812;SDS011;9534;51.140;6.296;2022-09-14T21:19:28;34.22;;;9.63;;
18812;SDS011;9534;51.140;6.296;2022-09-14T21:23:32;33.30;;;9.70;;
18812;SDS011;9534;51.140;6.296;2022-09-14T21:27:35;25.52;;;7.72;;
18812;SDS011;9534;51.140;6.296;2022-09-14T21:31:38;30.38;;;8.88;;
18812;SDS011;9534;51.140;6.296;2022-09-14T21:35:43;28.58;;;9.38;;
18812;SDS011;9534;51.140;6.296;2022-09-14T21:39:46;32.42;;;9.20;;
18812;SDS011;9534;51.140;6.296;2022-09-14T21:43:49;28.13;;;8.98;;
18812;SDS011;9534;51.140;6.296;2022-09-14T21:47:52;25.50;;;8.98;;
18812;SDS011;9534;51.140;6.296;2022-09-14T21:51:57;36.42;;;11.43;;
18812;SDS011;9534;51.140;6.296;2022-09-14T21:56:01;41.08;;;12.55;;
18812;SDS011;9534;51.140;6.296;2022-09-14T22:00:07;36.13;;;12.57;;
18812;SDS011;9534;51.140;6.296;2022-09-14T22:04:11;36.45;;;10.45;;
18812;SDS011;9534;51.140;6.296;2022-09-14T22:08:18;31.70;;;11.05;;
18812;SDS011;9534;51.140;6.296;2022-09-14T22:12:21;34.90;;;10.38;;
18812;SDS011;9534;51.140;6.296;2022-09-14T22:16:24;36.47;;;11.38;;
18812;SDS011;9534;51.140;6.296;2022-09-14T22:20:29;43.15;;;11.50;;
18812;SDS011;9534;51.140;6.296;2022-09-14T22:24:34;41.08;;;10.15;;
18812;SDS011;9534;51.140;6.296;2022-09-14T22:28:39;38.97;;;12.20;;
18812;SDS011;9534;51.140;6.296;2022-09-14T22:32:42;36.22;;;11.07;;
18812;SDS011;9534;51.140;6.296;2022-09-14T22:36:45;37.50;;;11.30;;
18812;SDS011;9534;51.140;6.296;2022-09-14T22:40:53;37.50;;;10.38;;
18812;SDS011;9534;51.140;6.296;2022-09-14T22:44:57;46.92;;;12.30;;
18812;SDS011;9534;51.140;6.296;2022-09-14T22:49:00;43.40;;;11.00;;
18812;SDS011;9534;51.140;6.296;2022-09-14T22:53:03;38.45;;;11.75;;
18812;SDS011;9534;51.140;6.296;2022-09-14T22:57:07;52.47;;;14.63;;
18812;SDS011;9534;51.140;6.296;2022-09-14T23:01:11;50.88;;;14.65;;
18812;SDS011;9534;51.140;6.296;2022-09-14T23:05:16;55.45;;;16.40;;
18812;SDS011;9534;51.140;6.296;2022-09-14T23:09:20;62.38;;;19.05;;
18812;SDS011;9534;51.140;6.296;2022-09-14T23:13:25;45.85;;;14.88;;
18812;SDS011;9534;51.140;6.296;2022-09-14T23:17:28;50.95;;;16.52;;
18812;SDS011;9534;51.140;6.296;2022-09-14T23:21:31;54.80;;;17.40;;
18812;SDS011;9534;51.140;6.296;2022-09-14T23:25:36;50.67;;;15.05;;
18812;SDS011;9534;51.140;6.296;2022-09-14T23:29:42;52.53;;;16.77;;
18812;SDS011;9534;51.140;6.296;2022-09-14T23:33:47;53.40;;;15.68;;
18812;SDS011;9534;51.140;6.296;2022-09-14T23:37:51;44.05;;;14.02;;
18812;SDS011;9534;51.140;6.296;2022-09-14T23:41:54;38.13;;;11.60;;
18812;SDS011;9534;51.140;6.296;2022-09-14T23:45:58;38.00;;;11.30;;
18812;SDS011;9534;51.140;6.296;2022-09-14T23:50:02;37.88;;;10.27;;
18812;SDS011;9534;51.140;6.296;2022-09-14T23:54:06;31.20;;;9.77;;
18812;SDS011;9534;51.140;6.296;2022-09-14T23:58:09;39.25;;;10.75;;
